sensor_id;sensor_type;location;lat;lon;timestamp;temperature;humidity
10296;DHT22;5193;51.032;6.356;2022-07-11T00:01:38;17.70;99.90
10296;DHT22;5193;51.032;6.356;2022-07-11T00:04:04;17.60;99.90
10296;DHT22;5193;51.032;6.356;2022-07-11T00:06:29;17.70;99.90
10296;DHT22;5193;51.032;6.356;2022-07-11T00:08:55;17.60;99.90
10296;DHT22;5193;51.032;6.356;2022-07-11T00:11:20;17.60;99.90
10296;DHT22;5193;51.032;6.356;2022-07-11T00:13:46;17.60;99.90
10296;DHT22;5193;51.032;6.356;2022-07-11T00:16:12;17.60;99.90
10296;DHT22;5193;51.032;6.356;2022-07-11T00:18:39;17.60;99.90
10296;DHT22;5193;51.032;6.356;2022-07-11T00:21:04;17.60;99.90
10296;DHT22;5193;51.032;6.356;2022-07-11T00:23:30;17.60;99.90
10296;DHT22;5193;51.032;6.356;2022-07-11T00:25:56;17.60;99.90
10296;DHT22;5193;51.032;6.356;2022-07-11T00:28:21;17.50;99.90
10296;DHT22;5193;51.032;6.356;2022-07-11T00:30:47;17.50;99.90
10296;DHT22;5193;51.032;6.356;2022-07-11T00:33:13;17.50;99.90
10296;DHT22;5193;51.032;6.356;2022-07-11T00:35:38;17.50;99.90
10296;DHT22;5193;51.032;6.356;2022-07-11T00:38:04;17.50;99.90
10296;DHT22;5193;51.032;6.356;2022-07-11T00:40:30;17.50;99.90
10296;DHT22;5193;51.032;6.356;2022-07-11T00:42:56;17.50;99.90
10296;DHT22;5193;51.032;6.356;2022-07-11T00:45:21;17.50;99.90
10296;DHT22;5193;51.032;6.356;2022-07-11T00:47:47;17.50;99.90
10296;DHT22;5193;51.032;6.356;2022-07-11T00:50:14;17.40;99.90
10296;DHT22;5193;51.032;6.356;2022-07-11T00:52:40;17.40;99.90
10296;DHT22;5193;51.032;6.356;2022-07-11T00:55:07;17.30;99.90
10296;DHT22;5193;51.032;6.356;2022-07-11T00:57:36;17.30;99.90
10296;DHT22;5193;51.032;6.356;2022-07-11T01:00:03;17.30;99.90
10296;DHT22;5193;51.032;6.356;2022-07-11T01:02:29;17.40;99.90
10296;DHT22;5193;51.032;6.356;2022-07-11T01:04:55;17.30;99.90
10296;DHT22;5193;51.032;6.356;2022-07-11T01:07:21;17.30;99.90
10296;DHT22;5193;51.032;6.356;2022-07-11T01:09:47;17.30;99.90
10296;DHT22;5193;51.032;6.356;2022-07-11T01:12:12;17.30;99.90
10296;DHT22;5193;51.032;6.356;2022-07-11T01:14:38;17.30;99.90
10296;DHT22;5193;51.032;6.356;2022-07-11T01:17:04;17.30;99.90
10296;DHT22;5193;51.032;6.356;2022-07-11T01:19:29;17.30;99.90
10296;DHT22;5193;51.032;6.356;2022-07-11T01:21:58;17.30;99.90
10296;DHT22;5193;51.032;6.356;2022-07-11T01:24:25;17.30;99.90
10296;DHT22;5193;51.032;6.356;2022-07-11T01:26:51;17.30;99.90
10296;DHT22;5193;51.032;6.356;2022-07-11T01:29:17;17.20;99.90
10296;DHT22;5193;51.032;6.356;2022-07-11T01:31:43;17.20;99.90
10296;DHT22;5193;51.032;6.356;2022-07-11T01:34:10;17.20;99.90
10296;DHT22;5193;51.032;6.356;2022-07-11T01:36:35;17.20;99.90
10296;DHT22;5193;51.032;6.356;2022-07-11T01:39:02;17.10;99.90
10296;DHT22;5193;51.032;6.356;2022-07-11T01:41:27;17.10;99.90
10296;DHT22;5193;51.032;6.356;2022-07-11T01:43:53;17.10;99.90
10296;DHT22;5193;51.032;6.356;2022-07-11T01:46:19;17.10;99.90
10296;DHT22;5193;51.032;6.356;2022-07-11T01:48:44;17.10;99.90
10296;DHT22;5193;51.032;6.356;2022-07-11T01:51:10;17.00;99.90
10296;DHT22;5193;51.032;6.356;2022-07-11T01:53:36;17.00;99.90
10296;DHT22;5193;51.032;6.356;2022-07-11T01:56:02;17.00;99.90
10296;DHT22;5193;51.032;6.356;2022-07-11T01:58:27;17.00;99.90
10296;DHT22;5193;51.032;6.356;2022-07-11T02:00:56;17.00;99.90
10296;DHT22;5193;51.032;6.356;2022-07-11T02:03:22;16.90;99.90
10296;DHT22;5193;51.032;6.356;2022-07-11T02:05:47;16.80;99.90
10296;DHT22;5193;51.032;6.356;2022-07-11T02:08:13;16.80;99.90
10296;DHT22;5193;51.032;6.356;2022-07-11T02:13:09;16.70;99.90
10296;DHT22;5193;51.032;6.356;2022-07-11T02:15:35;16.60;99.90
10296;DHT22;5193;51.032;6.356;2022-07-11T02:18:01;16.50;99.90
10296;DHT22;5193;51.032;6.356;2022-07-11T02:20:26;16.50;99.90
10296;DHT22;5193;51.032;6.356;2022-07-11T02:22:52;16.40;99.90
10296;DHT22;5193;51.032;6.356;2022-07-11T02:25:18;16.40;99.90
10296;DHT22;5193;51.032;6.356;2022-07-11T02:27:45;16.30;99.90
10296;DHT22;5193;51.032;6.356;2022-07-11T02:30:10;16.30;99.90
10296;DHT22;5193;51.032;6.356;2022-07-11T02:32:37;16.20;99.90
10296;DHT22;5193;51.032;6.356;2022-07-11T02:35:03;16.20;99.90
10296;DHT22;5193;51.032;6.356;2022-07-11T02:37:29;16.10;99.90
10296;DHT22;5193;51.032;6.356;2022-07-11T02:39:55;16.10;99.90
10296;DHT22;5193;51.032;6.356;2022-07-11T02:42:21;16.00;99.90
10296;DHT22;5193;51.032;6.356;2022-07-11T02:44:46;16.00;99.90
10296;DHT22;5193;51.032;6.356;2022-07-11T02:47:12;15.90;99.90
10296;DHT22;5193;51.032;6.356;2022-07-11T02:49:39;15.90;99.90
10296;DHT22;5193;51.032;6.356;2022-07-11T02:52:05;15.80;99.90
10296;DHT22;5193;51.032;6.356;2022-07-11T02:54:31;15.80;99.90
10296;DHT22;5193;51.032;6.356;2022-07-11T02:56:57;15.80;99.90
10296;DHT22;5193;51.032;6.356;2022-07-11T02:59:23;15.70;99.90
10296;DHT22;5193;51.032;6.356;2022-07-11T03:01:49;15.60;99.90
10296;DHT22;5193;51.032;6.356;2022-07-11T03:04:15;15.60;99.90
10296;DHT22;5193;51.032;6.356;2022-07-11T03:06:41;15.50;99.90
10296;DHT22;5193;51.032;6.356;2022-07-11T03:09:08;15.50;99.90
10296;DHT22;5193;51.032;6.356;2022-07-11T03:11:33;15.40;99.90
10296;DHT22;5193;51.032;6.356;2022-07-11T03:13:59;15.40;99.90
10296;DHT22;5193;51.032;6.356;2022-07-11T03:16:27;15.40;99.90
10296;DHT22;5193;51.032;6.356;2022-07-11T03:18:52;15.30;99.90
10296;DHT22;5193;51.032;6.356;2022-07-11T03:21:18;15.30;99.90
10296;DHT22;5193;51.032;6.356;2022-07-11T03:23:44;15.20;99.90
10296;DHT22;5193;51.032;6.356;2022-07-11T03:26:09;15.20;99.90
10296;DHT22;5193;51.032;6.356;2022-07-11T03:28:35;15.20;99.90
10296;DHT22;5193;51.032;6.356;2022-07-11T03:31:00;15.20;99.90
10296;DHT22;5193;51.032;6.356;2022-07-11T03:33:27;15.10;99.90
10296;DHT22;5193;51.032;6.356;2022-07-11T03:35:53;15.10;99.90
10296;DHT22;5193;51.032;6.356;2022-07-11T03:38:20;15.00;99.90
10296;DHT22;5193;51.032;6.356;2022-07-11T03:40:46;15.00;99.90
10296;DHT22;5193;51.032;6.356;2022-07-11T03:43:12;15.00;99.90
10296;DHT22;5193;51.032;6.356;2022-07-11T03:45:38;15.00;99.90
10296;DHT22;5193;51.032;6.356;2022-07-11T03:48:04;14.90;99.90
10296;DHT22;5193;51.032;6.356;2022-07-11T03:50:30;14.90;99.90
10296;DHT22;5193;51.032;6.356;2022-07-11T03:52:56;14.90;99.90
10296;DHT22;5193;51.032;6.356;2022-07-11T03:55:22;14.90;99.90
10296;DHT22;5193;51.032;6.356;2022-07-11T03:57:51;14.90;99.90
10296;DHT22;5193;51.032;6.356;2022-07-11T04:00:17;14.80;99.90
10296;DHT22;5193;51.032;6.356;2022-07-11T04:02:45;14.90;99.90
10296;DHT22;5193;51.032;6.356;2022-07-11T04:05:12;14.80;99.90
10296;DHT22;5193;51.032;6.356;2022-07-11T04:07:38;14.80;99.90
10296;DHT22;5193;51.032;6.356;2022-07-11T04:10:04;14.90;99.90
10296;DHT22;5193;51.032;6.356;2022-07-11T04:12:30;14.80;99.90
10296;DHT22;5193;51.032;6.356;2022-07-11T04:14:55;14.80;99.90
10296;DHT22;5193;51.032;6.356;2022-07-11T04:17:21;14.80;99.90
10296;DHT22;5193;51.032;6.356;2022-07-11T04:19:46;14.80;99.90
10296;DHT22;5193;51.032;6.356;2022-07-11T04:22:12;14.80;99.90
10296;DHT22;5193;51.032;6.356;2022-07-11T04:24:38;14.80;99.90
10296;DHT22;5193;51.032;6.356;2022-07-11T04:27:04;14.90;99.90
10296;DHT22;5193;51.032;6.356;2022-07-11T04:29:30;14.90;99.90
10296;DHT22;5193;51.032;6.356;2022-07-11T04:31:55;14.90;99.90
10296;DHT22;5193;51.032;6.356;2022-07-11T04:34:21;14.90;99.90
10296;DHT22;5193;51.032;6.356;2022-07-11T04:36:47;14.90;99.90
10296;DHT22;5193;51.032;6.356;2022-07-11T04:39:12;14.90;99.90
10296;DHT22;5193;51.032;6.356;2022-07-11T04:41:38;14.90;99.90
10296;DHT22;5193;51.032;6.356;2022-07-11T04:44:04;15.00;99.90
10296;DHT22;5193;51.032;6.356;2022-07-11T04:46:30;15.00;99.90
10296;DHT22;5193;51.032;6.356;2022-07-11T04:48:57;15.10;99.90
10296;DHT22;5193;51.032;6.356;2022-07-11T04:51:23;15.10;99.90
10296;DHT22;5193;51.032;6.356;2022-07-11T04:53:49;15.20;99.90
10296;DHT22;5193;51.032;6.356;2022-07-11T04:56:15;15.20;99.90
10296;DHT22;5193;51.032;6.356;2022-07-11T04:58:41;15.30;99.90
10296;DHT22;5193;51.032;6.356;2022-07-11T05:01:06;15.40;99.90
10296;DHT22;5193;51.032;6.356;2022-07-11T05:03:32;15.40;99.90
10296;DHT22;5193;51.032;6.356;2022-07-11T05:05:58;15.50;99.90
10296;DHT22;5193;51.032;6.356;2022-07-11T05:08:24;15.60;99.90
10296;DHT22;5193;51.032;6.356;2022-07-11T05:10:49;15.60;99.90
10296;DHT22;5193;51.032;6.356;2022-07-11T05:13:15;15.70;99.90
10296;DHT22;5193;51.032;6.356;2022-07-11T05:15:41;15.80;99.90
10296;DHT22;5193;51.032;6.356;2022-07-11T05:18:06;15.80;99.90
10296;DHT22;5193;51.032;6.356;2022-07-11T05:20:32;15.90;99.90
10296;DHT22;5193;51.032;6.356;2022-07-11T05:22:59;15.90;99.90
10296;DHT22;5193;51.032;6.356;2022-07-11T05:25:25;15.90;99.90
10296;DHT22;5193;51.032;6.356;2022-07-11T05:27:51;15.90;99.90
10296;DHT22;5193;51.032;6.356;2022-07-11T05:30:17;15.90;99.90
10296;DHT22;5193;51.032;6.356;2022-07-11T05:32:43;15.90;99.90
10296;DHT22;5193;51.032;6.356;2022-07-11T05:35:08;16.00;99.90
10296;DHT22;5193;51.032;6.356;2022-07-11T05:37:34;16.00;99.90
10296;DHT22;5193;51.032;6.356;2022-07-11T05:40:00;16.00;99.90
10296;DHT22;5193;51.032;6.356;2022-07-11T05:42:26;16.00;99.90
10296;DHT22;5193;51.032;6.356;2022-07-11T05:44:51;16.10;99.90
10296;DHT22;5193;51.032;6.356;2022-07-11T05:47:17;16.10;99.90
10296;DHT22;5193;51.032;6.356;2022-07-11T05:49:43;16.10;99.90
10296;DHT22;5193;51.032;6.356;2022-07-11T05:52:08;16.20;99.90
10296;DHT22;5193;51.032;6.356;2022-07-11T05:54:34;16.30;99.90
10296;DHT22;5193;51.032;6.356;2022-07-11T05:57:00;16.30;99.90
10296;DHT22;5193;51.032;6.356;2022-07-11T05:59:27;16.30;99.90
10296;DHT22;5193;51.032;6.356;2022-07-11T06:01:53;16.40;99.90
10296;DHT22;5193;51.032;6.356;2022-07-11T06:04:19;16.40;99.90
10296;DHT22;5193;51.032;6.356;2022-07-11T06:06:45;16.40;99.90
10296;DHT22;5193;51.032;6.356;2022-07-11T06:09:10;16.50;99.90
10296;DHT22;5193;51.032;6.356;2022-07-11T06:11:36;16.40;99.90
10296;DHT22;5193;51.032;6.356;2022-07-11T06:14:02;16.50;99.90
10296;DHT22;5193;51.032;6.356;2022-07-11T06:16:28;16.60;99.90
10296;DHT22;5193;51.032;6.356;2022-07-11T06:18:54;16.60;99.90
10296;DHT22;5193;51.032;6.356;2022-07-11T06:21:28;16.60;99.90
10296;DHT22;5193;51.032;6.356;2022-07-11T06:23:54;16.70;99.90
10296;DHT22;5193;51.032;6.356;2022-07-11T06:26:20;16.70;99.90
10296;DHT22;5193;51.032;6.356;2022-07-11T06:28:46;16.80;99.90
10296;DHT22;5193;51.032;6.356;2022-07-11T06:31:12;16.80;99.90
10296;DHT22;5193;51.032;6.356;2022-07-11T06:33:38;16.80;99.90
10296;DHT22;5193;51.032;6.356;2022-07-11T06:36:04;16.90;99.90
10296;DHT22;5193;51.032;6.356;2022-07-11T06:38:31;17.00;99.90
10296;DHT22;5193;51.032;6.356;2022-07-11T06:40:56;17.10;99.90
10296;DHT22;5193;51.032;6.356;2022-07-11T06:43:23;17.10;99.90
10296;DHT22;5193;51.032;6.356;2022-07-11T06:45:48;17.10;99.90
10296;DHT22;5193;51.032;6.356;2022-07-11T06:48:14;17.20;99.90
10296;DHT22;5193;51.032;6.356;2022-07-11T06:50:40;17.20;99.90
10296;DHT22;5193;51.032;6.356;2022-07-11T06:53:06;17.20;99.90
10296;DHT22;5193;51.032;6.356;2022-07-11T06:55:33;17.20;99.90
10296;DHT22;5193;51.032;6.356;2022-07-11T06:57:59;17.20;99.90
10296;DHT22;5193;51.032;6.356;2022-07-11T07:00:25;17.30;99.90
10296;DHT22;5193;51.032;6.356;2022-07-11T07:02:56;17.40;99.90
10296;DHT22;5193;51.032;6.356;2022-07-11T07:05:25;17.50;99.90
10296;DHT22;5193;51.032;6.356;2022-07-11T07:07:52;17.50;99.90
10296;DHT22;5193;51.032;6.356;2022-07-11T07:10:18;17.60;99.90
10296;DHT22;5193;51.032;6.356;2022-07-11T07:12:44;17.60;99.90
10296;DHT22;5193;51.032;6.356;2022-07-11T07:15:10;17.60;99.90
10296;DHT22;5193;51.032;6.356;2022-07-11T07:17:36;17.60;99.90
10296;DHT22;5193;51.032;6.356;2022-07-11T07:20:03;17.60;99.90
10296;DHT22;5193;51.032;6.356;2022-07-11T07:22:29;17.60;99.90
10296;DHT22;5193;51.032;6.356;2022-07-11T07:24:54;17.50;99.90
10296;DHT22;5193;51.032;6.356;2022-07-11T07:27:20;17.50;99.90
10296;DHT22;5193;51.032;6.356;2022-07-11T07:29:46;17.50;99.90
10296;DHT22;5193;51.032;6.356;2022-07-11T07:32:12;17.50;99.90
10296;DHT22;5193;51.032;6.356;2022-07-11T07:34:38;17.50;99.90
10296;DHT22;5193;51.032;6.356;2022-07-11T07:37:03;17.60;99.90
10296;DHT22;5193;51.032;6.356;2022-07-11T07:39:29;17.60;99.90
10296;DHT22;5193;51.032;6.356;2022-07-11T07:41:55;17.60;99.90
10296;DHT22;5193;51.032;6.356;2022-07-11T07:44:20;17.60;99.90
10296;DHT22;5193;51.032;6.356;2022-07-11T07:46:46;17.70;99.90
10296;DHT22;5193;51.032;6.356;2022-07-11T07:49:12;17.70;99.90
10296;DHT22;5193;51.032;6.356;2022-07-11T07:51:38;17.80;99.90
10296;DHT22;5193;51.032;6.356;2022-07-11T07:54:04;18.00;99.90
10296;DHT22;5193;51.032;6.356;2022-07-11T07:56:31;18.10;99.90
10296;DHT22;5193;51.032;6.356;2022-07-11T07:58:57;18.30;99.90
10296;DHT22;5193;51.032;6.356;2022-07-11T08:01:22;18.60;99.90
10296;DHT22;5193;51.032;6.356;2022-07-11T08:04:02;18.70;99.90
10296;DHT22;5193;51.032;6.356;2022-07-11T08:06:27;18.90;99.90
10296;DHT22;5193;51.032;6.356;2022-07-11T08:08:53;18.90;99.90
10296;DHT22;5193;51.032;6.356;2022-07-11T08:11:19;19.00;99.90
10296;DHT22;5193;51.032;6.356;2022-07-11T08:13:44;19.00;99.90
10296;DHT22;5193;51.032;6.356;2022-07-11T08:16:10;19.00;99.90
10296;DHT22;5193;51.032;6.356;2022-07-11T08:18:35;19.00;99.90
10296;DHT22;5193;51.032;6.356;2022-07-11T08:21:02;19.10;99.90
10296;DHT22;5193;51.032;6.356;2022-07-11T08:23:28;19.10;99.90
10296;DHT22;5193;51.032;6.356;2022-07-11T08:25:53;19.30;99.90
10296;DHT22;5193;51.032;6.356;2022-07-11T08:28:19;19.40;99.90
10296;DHT22;5193;51.032;6.356;2022-07-11T08:30:45;19.50;99.90
10296;DHT22;5193;51.032;6.356;2022-07-11T08:33:12;19.60;99.90
10296;DHT22;5193;51.032;6.356;2022-07-11T08:35:37;19.50;99.90
10296;DHT22;5193;51.032;6.356;2022-07-11T08:38:03;19.70;99.90
10296;DHT22;5193;51.032;6.356;2022-07-11T08:40:29;19.70;99.90
10296;DHT22;5193;51.032;6.356;2022-07-11T08:42:56;19.70;99.90
10296;DHT22;5193;51.032;6.356;2022-07-11T08:45:31;19.70;99.90
10296;DHT22;5193;51.032;6.356;2022-07-11T08:47:57;19.70;99.90
10296;DHT22;5193;51.032;6.356;2022-07-11T08:50:26;19.60;99.90
10296;DHT22;5193;51.032;6.356;2022-07-11T08:52:57;19.50;99.90
10296;DHT22;5193;51.032;6.356;2022-07-11T08:55:23;19.40;99.90
10296;DHT22;5193;51.032;6.356;2022-07-11T08:57:49;19.40;99.90
10296;DHT22;5193;51.032;6.356;2022-07-11T09:00:16;19.40;99.90
10296;DHT22;5193;51.032;6.356;2022-07-11T09:02:42;19.40;99.90
10296;DHT22;5193;51.032;6.356;2022-07-11T09:05:09;19.40;99.90
10296;DHT22;5193;51.032;6.356;2022-07-11T09:07:45;19.40;99.90
10296;DHT22;5193;51.032;6.356;2022-07-11T09:10:12;19.50;99.90
10296;DHT22;5193;51.032;6.356;2022-07-11T09:15:40;19.40;99.90
10296;DHT22;5193;51.032;6.356;2022-07-11T09:18:36;19.40;99.90
10296;DHT22;5193;51.032;6.356;2022-07-11T09:21:14;19.30;99.90
10296;DHT22;5193;51.032;6.356;2022-07-11T09:24:02;19.20;99.90
10296;DHT22;5193;51.032;6.356;2022-07-11T09:26:51;19.20;99.90
10296;DHT22;5193;51.032;6.356;2022-07-11T09:29:20;19.20;99.90
10296;DHT22;5193;51.032;6.356;2022-07-11T09:31:48;19.30;99.90
10296;DHT22;5193;51.032;6.356;2022-07-11T09:34:21;19.20;99.90
10296;DHT22;5193;51.032;6.356;2022-07-11T09:36:51;19.20;99.90
10296;DHT22;5193;51.032;6.356;2022-07-11T09:39:19;19.10;99.90
10296;DHT22;5193;51.032;6.356;2022-07-11T09:41:47;19.00;99.90
10296;DHT22;5193;51.032;6.356;2022-07-11T09:44:18;19.00;99.90
10296;DHT22;5193;51.032;6.356;2022-07-11T09:46:49;19.10;99.90
10296;DHT22;5193;51.032;6.356;2022-07-11T09:49:16;19.00;99.90
10296;DHT22;5193;51.032;6.356;2022-07-11T09:51:42;19.10;99.90
10296;DHT22;5193;51.032;6.356;2022-07-11T09:54:09;19.10;99.90
10296;DHT22;5193;51.032;6.356;2022-07-11T09:56:44;19.10;99.90
10296;DHT22;5193;51.032;6.356;2022-07-11T09:59:12;19.10;99.90
10296;DHT22;5193;51.032;6.356;2022-07-11T10:01:40;19.00;99.90
10296;DHT22;5193;51.032;6.356;2022-07-11T10:04:08;19.00;99.90
10296;DHT22;5193;51.032;6.356;2022-07-11T10:06:35;18.90;99.90
10296;DHT22;5193;51.032;6.356;2022-07-11T10:09:00;19.00;99.90
10296;DHT22;5193;51.032;6.356;2022-07-11T10:11:27;19.00;99.90
10296;DHT22;5193;51.032;6.356;2022-07-11T10:13:54;19.00;99.90
10296;DHT22;5193;51.032;6.356;2022-07-11T10:16:24;19.10;99.90
10296;DHT22;5193;51.032;6.356;2022-07-11T10:21:42;19.40;99.90
10296;DHT22;5193;51.032;6.356;2022-07-11T10:24:21;19.60;99.90
10296;DHT22;5193;51.032;6.356;2022-07-11T10:26:58;19.80;99.90
10296;DHT22;5193;51.032;6.356;2022-07-11T10:29:48;20.00;99.90
10296;DHT22;5193;51.032;6.356;2022-07-11T10:32:15;20.10;99.90
10296;DHT22;5193;51.032;6.356;2022-07-11T10:34:42;20.20;99.90
10296;DHT22;5193;51.032;6.356;2022-07-11T10:37:09;20.30;99.90
10296;DHT22;5193;51.032;6.356;2022-07-11T10:39:36;20.40;99.90
10296;DHT22;5193;51.032;6.356;2022-07-11T10:42:04;20.50;99.90
10296;DHT22;5193;51.032;6.356;2022-07-11T10:44:51;20.60;99.90
10296;DHT22;5193;51.032;6.356;2022-07-11T10:50:30;20.80;99.90
10296;DHT22;5193;51.032;6.356;2022-07-11T10:52:57;20.80;99.90
10296;DHT22;5193;51.032;6.356;2022-07-11T10:55:35;20.90;99.90
10296;DHT22;5193;51.032;6.356;2022-07-11T11:01:05;20.70;99.90
10296;DHT22;5193;51.032;6.356;2022-07-11T11:03:32;20.60;99.90
10296;DHT22;5193;51.032;6.356;2022-07-11T11:05:58;20.40;99.90
10296;DHT22;5193;51.032;6.356;2022-07-11T11:13:35;20.30;99.90
10296;DHT22;5193;51.032;6.356;2022-07-11T11:16:02;20.30;99.90
10296;DHT22;5193;51.032;6.356;2022-07-11T11:18:32;20.30;99.90
10296;DHT22;5193;51.032;6.356;2022-07-11T11:23:39;20.30;99.90
10296;DHT22;5193;51.032;6.356;2022-07-11T11:26:15;20.20;99.90
10296;DHT22;5193;51.032;6.356;2022-07-11T11:29:02;20.20;99.90
10296;DHT22;5193;51.032;6.356;2022-07-11T11:31:30;20.20;99.90
10296;DHT22;5193;51.032;6.356;2022-07-11T11:34:03;20.10;99.90
10296;DHT22;5193;51.032;6.356;2022-07-11T11:36:30;20.10;99.90
10296;DHT22;5193;51.032;6.356;2022-07-11T11:38:56;20.10;99.90
10296;DHT22;5193;51.032;6.356;2022-07-11T11:41:26;20.10;99.90
10296;DHT22;5193;51.032;6.356;2022-07-11T11:43:55;20.10;99.90
10296;DHT22;5193;51.032;6.356;2022-07-11T11:46:29;20.10;99.90
10296;DHT22;5193;51.032;6.356;2022-07-11T11:48:59;20.20;99.90
10296;DHT22;5193;51.032;6.356;2022-07-11T11:51:30;20.20;99.90
10296;DHT22;5193;51.032;6.356;2022-07-11T11:53:58;20.40;99.90
10296;DHT22;5193;51.032;6.356;2022-07-11T11:56:35;20.40;99.90
10296;DHT22;5193;51.032;6.356;2022-07-11T11:59:09;20.40;99.90
10296;DHT22;5193;51.032;6.356;2022-07-11T12:01:40;20.40;99.90
10296;DHT22;5193;51.032;6.356;2022-07-11T12:04:11;20.50;99.90
10296;DHT22;5193;51.032;6.356;2022-07-11T12:06:39;20.80;99.90
10296;DHT22;5193;51.032;6.356;2022-07-11T12:09:13;20.90;99.90
10296;DHT22;5193;51.032;6.356;2022-07-11T12:11:44;21.00;99.90
10296;DHT22;5193;51.032;6.356;2022-07-11T12:14:11;21.20;99.90
10296;DHT22;5193;51.032;6.356;2022-07-11T12:16:46;21.30;99.90
10296;DHT22;5193;51.032;6.356;2022-07-11T12:19:20;21.30;99.90
10296;DHT22;5193;51.032;6.356;2022-07-11T12:21:52;21.30;99.90
10296;DHT22;5193;51.032;6.356;2022-07-11T12:24:23;21.40;99.90
10296;DHT22;5193;51.032;6.356;2022-07-11T12:26:50;21.40;99.90
10296;DHT22;5193;51.032;6.356;2022-07-11T12:29:20;21.50;99.90
10296;DHT22;5193;51.032;6.356;2022-07-11T12:34:23;21.50;99.90
10296;DHT22;5193;51.032;6.356;2022-07-11T12:37:00;21.60;99.90
10296;DHT22;5193;51.032;6.356;2022-07-11T12:39:28;21.70;99.90
10296;DHT22;5193;51.032;6.356;2022-07-11T12:41:55;21.80;99.90
10296;DHT22;5193;51.032;6.356;2022-07-11T12:44:22;21.90;99.90
10296;DHT22;5193;51.032;6.356;2022-07-11T12:47:07;21.90;99.90
10296;DHT22;5193;51.032;6.356;2022-07-11T12:49:33;22.00;99.90
10296;DHT22;5193;51.032;6.356;2022-07-11T12:51:59;22.10;99.90
10296;DHT22;5193;51.032;6.356;2022-07-11T12:54:31;22.10;99.90
10296;DHT22;5193;51.032;6.356;2022-07-11T12:56:59;22.20;99.90
10296;DHT22;5193;51.032;6.356;2022-07-11T12:59:29;22.20;99.90
10296;DHT22;5193;51.032;6.356;2022-07-11T13:02:07;22.20;99.90
10296;DHT22;5193;51.032;6.356;2022-07-11T13:07:19;22.00;99.90
10296;DHT22;5193;51.032;6.356;2022-07-11T13:10:04;22.00;99.90
10296;DHT22;5193;51.032;6.356;2022-07-11T13:12:30;22.30;99.90
10296;DHT22;5193;51.032;6.356;2022-07-11T13:15:00;22.50;99.90
10296;DHT22;5193;51.032;6.356;2022-07-11T13:17:39;22.70;99.90
10296;DHT22;5193;51.032;6.356;2022-07-11T13:20:10;22.60;99.90
10296;DHT22;5193;51.032;6.356;2022-07-11T13:22:38;22.50;99.90
10296;DHT22;5193;51.032;6.356;2022-07-11T13:25:05;22.50;99.90
10296;DHT22;5193;51.032;6.356;2022-07-11T13:27:31;22.40;99.90
10296;DHT22;5193;51.032;6.356;2022-07-11T13:29:56;22.40;99.90
10296;DHT22;5193;51.032;6.356;2022-07-11T13:32:22;22.50;99.90
10296;DHT22;5193;51.032;6.356;2022-07-11T13:34:48;22.40;99.90
10296;DHT22;5193;51.032;6.356;2022-07-11T13:37:15;22.40;99.90
10296;DHT22;5193;51.032;6.356;2022-07-11T13:39:41;22.20;99.90
10296;DHT22;5193;51.032;6.356;2022-07-11T13:42:06;22.20;99.90
10296;DHT22;5193;51.032;6.356;2022-07-11T13:44:32;22.20;99.90
10296;DHT22;5193;51.032;6.356;2022-07-11T13:46:58;22.20;99.90
10296;DHT22;5193;51.032;6.356;2022-07-11T13:49:23;22.30;99.90
10296;DHT22;5193;51.032;6.356;2022-07-11T13:51:49;22.30;99.90
10296;DHT22;5193;51.032;6.356;2022-07-11T13:54:15;22.40;99.90
10296;DHT22;5193;51.032;6.356;2022-07-11T13:56:40;22.30;99.90
10296;DHT22;5193;51.032;6.356;2022-07-11T13:59:06;22.20;99.90
10296;DHT22;5193;51.032;6.356;2022-07-11T14:01:32;22.20;99.90
10296;DHT22;5193;51.032;6.356;2022-07-11T14:03:58;22.20;99.90
10296;DHT22;5193;51.032;6.356;2022-07-11T14:06:23;22.20;99.90
10296;DHT22;5193;51.032;6.356;2022-07-11T14:08:49;22.20;99.90
10296;DHT22;5193;51.032;6.356;2022-07-11T14:11:15;22.20;99.90
10296;DHT22;5193;51.032;6.356;2022-07-11T14:13:41;22.30;99.90
10296;DHT22;5193;51.032;6.356;2022-07-11T14:16:07;22.30;99.90
10296;DHT22;5193;51.032;6.356;2022-07-11T14:18:32;22.20;99.90
10296;DHT22;5193;51.032;6.356;2022-07-11T14:20:58;22.20;99.90
10296;DHT22;5193;51.032;6.356;2022-07-11T14:23:24;22.10;99.90
10296;DHT22;5193;51.032;6.356;2022-07-11T14:25:51;22.20;99.90
10296;DHT22;5193;51.032;6.356;2022-07-11T14:28:17;22.20;99.90
10296;DHT22;5193;51.032;6.356;2022-07-11T14:30:44;22.20;99.90
10296;DHT22;5193;51.032;6.356;2022-07-11T14:33:10;22.20;99.90
10296;DHT22;5193;51.032;6.356;2022-07-11T14:35:42;22.40;99.90
10296;DHT22;5193;51.032;6.356;2022-07-11T14:38:07;22.60;99.90
10296;DHT22;5193;51.032;6.356;2022-07-11T14:40:33;22.80;99.90
10296;DHT22;5193;51.032;6.356;2022-07-11T14:42:59;22.90;99.90
10296;DHT22;5193;51.032;6.356;2022-07-11T14:45:24;22.90;99.90
10296;DHT22;5193;51.032;6.356;2022-07-11T14:47:50;22.90;99.90
10296;DHT22;5193;51.032;6.356;2022-07-11T14:50:16;22.90;99.90
10296;DHT22;5193;51.032;6.356;2022-07-11T14:52:42;22.90;99.90
10296;DHT22;5193;51.032;6.356;2022-07-11T14:55:10;22.80;99.90
10296;DHT22;5193;51.032;6.356;2022-07-11T14:57:35;22.70;99.90
10296;DHT22;5193;51.032;6.356;2022-07-11T15:00:01;22.60;99.90
10296;DHT22;5193;51.032;6.356;2022-07-11T15:02:27;22.70;99.90
10296;DHT22;5193;51.032;6.356;2022-07-11T15:05:11;22.80;99.90
10296;DHT22;5193;51.032;6.356;2022-07-11T15:07:36;22.70;99.90
10296;DHT22;5193;51.032;6.356;2022-07-11T15:10:21;22.70;99.90
10296;DHT22;5193;51.032;6.356;2022-07-11T15:13:05;22.60;99.90
10296;DHT22;5193;51.032;6.356;2022-07-11T15:15:30;22.70;99.90
10296;DHT22;5193;51.032;6.356;2022-07-11T15:17:56;22.80;99.90
10296;DHT22;5193;51.032;6.356;2022-07-11T15:20:22;23.00;99.90
10296;DHT22;5193;51.032;6.356;2022-07-11T15:22:47;23.00;99.90
10296;DHT22;5193;51.032;6.356;2022-07-11T15:25:13;23.20;99.90
10296;DHT22;5193;51.032;6.356;2022-07-11T15:27:40;23.50;99.90
10296;DHT22;5193;51.032;6.356;2022-07-11T15:30:07;23.60;99.90
10296;DHT22;5193;51.032;6.356;2022-07-11T15:32:33;23.60;99.90
10296;DHT22;5193;51.032;6.356;2022-07-11T15:35:00;23.50;99.90
10296;DHT22;5193;51.032;6.356;2022-07-11T15:37:26;23.60;99.90
10296;DHT22;5193;51.032;6.356;2022-07-11T15:39:52;23.60;99.90
10296;DHT22;5193;51.032;6.356;2022-07-11T15:42:17;23.60;99.90
10296;DHT22;5193;51.032;6.356;2022-07-11T15:44:44;23.80;99.90
10296;DHT22;5193;51.032;6.356;2022-07-11T15:47:10;23.80;99.90
10296;DHT22;5193;51.032;6.356;2022-07-11T15:49:35;23.70;99.90
10296;DHT22;5193;51.032;6.356;2022-07-11T15:52:01;23.70;99.90
10296;DHT22;5193;51.032;6.356;2022-07-11T15:54:26;23.70;99.90
10296;DHT22;5193;51.032;6.356;2022-07-11T15:56:52;23.50;99.90
10296;DHT22;5193;51.032;6.356;2022-07-11T15:59:17;23.30;99.90
10296;DHT22;5193;51.032;6.356;2022-07-11T16:01:43;23.20;99.90
10296;DHT22;5193;51.032;6.356;2022-07-11T16:04:08;23.10;99.90
10296;DHT22;5193;51.032;6.356;2022-07-11T16:06:35;22.90;99.90
10296;DHT22;5193;51.032;6.356;2022-07-11T16:09:01;22.80;99.90
10296;DHT22;5193;51.032;6.356;2022-07-11T16:11:26;22.70;99.90
10296;DHT22;5193;51.032;6.356;2022-07-11T16:13:52;22.80;99.90